Impacts TAF Board
For situational awareness. Not to be used for flight planning purposes.
IDs:

KPDX - Portland Intl Arpt, OR, US

Issued at 0543 UTC 18 Jan 2019
Updated at 0909 UTC 18 Jan 2019
Potential Impact None Slight Moderate High
Time<<19/10Z 19/11Z 19/12Z 19/13Z 19/14Z 19/15Z 19/16Z 19/17Z 19/18Z 19/19Z 19/20Z 19/21Z 19/22Z
Type
VIS
CIG
Cover
FltCat
WX
WDir
WSpd
WGst
Raw TAF
KPDX 180543Z 1806/1906 19015G25KT P6SM -SHRA SCT020 BKN035 OVC045
  FM181400 18010KT P6SM -SHRA SCT025 OVC050
  FM182000 13010KT P6SM -RA OVC045


METAR Board
Radar Display
Forecast Discussion
For situational awareness. Not to be used for flight planning purposes.